Time;durP1;ratioP1;P1;durP2;ratioP2;P2;SDS_P1;SDS_P2;PMS_P1;PMS_P2;Temp;Humidity;BMP_temperature;BMP_pressure;BME280_temperature;BME280_humidity;BME280_pressure;Samples;Min_cycle;Max_cycle;Signal;HPM_P1;HPM_P2
2023/09/01 00:01:40;;;;;;;11.30;5.80;;;;;;;;;;4989331;28;20438;-62
2023/09/01 00:04:07;;;;;;;12.23;5.70;;;;;;;;;;4992162;28;20932;-62
2023/09/01 00:06:34;;;;;;;11.35;6.20;;;;;;;;;;4991004;28;20429;-62
2023/09/01 00:09:01;;;;;;;12.45;5.78;;;;;;;;;;4990132;28;20426;-62
2023/09/01 00:11:27;;;;;;;11.15;5.53;;;;;;;;;;4994329;28;20426;-62
2023/09/01 00:13:55;;;;;;;11.63;5.78;;;;;;;;;;4990606;28;20424;-62
2023/09/01 00:16:23;;;;;;;11.65;5.75;;;;;;;;;;4993045;28;20509;-62
2023/09/01 00:18:50;;;;;;;11.85;5.22;;;;;;;;;;4989362;28;20436;-62
2023/09/01 00:21:18;;;;;;;13.43;5.68;;;;;;;;;;4994698;28;20435;-62
2023/09/01 00:23:45;;;;;;;13.75;5.85;;;;;;;;;;4988188;28;20420;-62
2023/09/01 00:26:12;;;;;;;11.68;5.57;;;;;;;;;;4993507;28;20424;-62
2023/09/01 00:28:39;;;;;;;14.00;5.75;;;;;;;;;;4987221;28;20451;-62
2023/09/01 00:31:06;;;;;;;13.57;5.67;;;;;;;;;;4992501;28;20417;-62
2023/09/01 00:33:34;;;;;;;11.40;5.50;;;;;;;;;;4986467;28;20424;-62
2023/09/01 00:36:02;;;;;;;11.23;5.43;;;;;;;;;;4992023;28;20784;-62
2023/09/01 00:38:32;;;;;;;12.35;5.82;;;;;;;;;;4986401;28;20420;-62
2023/09/01 00:40:59;;;;;;;11.63;5.50;;;;;;;;;;4997419;28;20436;-62
2023/09/01 00:43:26;;;;;;;12.52;5.82;;;;;;;;;;4985111;28;20889;-62
2023/09/01 00:45:53;;;;;;;14.13;5.40;;;;;;;;;;4995662;28;20957;-62
2023/09/01 00:48:20;;;;;;;10.67;5.93;;;;;;;;;;4984543;28;20464;-62
2023/09/01 00:50:50;;;;;;;9.30;5.45;;;;;;;;;;4991305;28;20419;-62
2023/09/01 00:53:17;;;;;;;16.17;6.20;;;;;;;;;;4984892;28;20414;-62
2023/09/01 00:55:44;;;;;;;13.90;6.03;;;;;;;;;;4993237;28;20427;-62
2023/09/01 00:58:11;;;;;;;15.83;6.60;;;;;;;;;;4985839;28;20507;-61
2023/09/01 01:00:39;;;;;;;11.93;6.05;;;;;;;;;;4990806;28;20826;-62
2023/09/01 01:03:07;;;;;;;15.32;6.50;;;;;;;;;;4990850;28;20424;-62
2023/09/01 01:05:51;;;;;;;11.52;6.75;;;;;;;;;;4992150;28;20414;-62
2023/09/01 01:08:27;;;;;;;12.38;6.43;;;;;;;;;;4989413;28;20404;-61
2023/09/01 01:11:06;;;;;;;10.00;6.18;;;;;;;;;;4991890;28;20413;-61
2023/09/01 01:13:36;;;;;;;11.10;5.90;;;;;;;;;;4987895;28;20414;-62
2023/09/01 01:16:03;;;;;;;11.63;6.23;;;;;;;;;;4987418;28;20419;-62
2023/09/01 01:18:31;;;;;;;13.80;6.25;;;;;;;;;;4987233;28;20410;-62
2023/09/01 01:21:06;;;;;;;13.73;6.13;;;;;;;;;;4988498;28;20448;-62
2023/09/01 01:23:36;;;;;;;12.43;6.47;;;;;;;;;;4988075;28;20415;-62
2023/09/01 01:26:04;;;;;;;13.68;6.28;;;;;;;;;;4986757;28;20429;-62
2023/09/01 01:28:31;;;;;;;15.38;6.75;;;;;;;;;;4992764;28;20473;-62
2023/09/01 01:30:58;;;;;;;14.57;6.80;;;;;;;;;;4989091;28;20428;-62
2023/09/01 01:33:39;;;;;;;11.13;6.00;;;;;;;;;;4992845;28;20421;-62
2023/09/01 01:36:12;;;;;;;18.05;6.60;;;;;;;;;;4985937;28;21018;-61
2023/09/01 01:38:41;;;;;;;12.07;6.60;;;;;;;;;;4991796;28;20419;-62
2023/09/01 01:41:09;;;;;;;15.00;7.05;;;;;;;;;;4987307;28;20965;-62
2023/09/01 01:43:38;;;;;;;14.40;6.88;;;;;;;;;;4990813;28;21115;-62
2023/09/01 01:46:06;;;;;;;11.83;6.53;;;;;;;;;;4984474;28;20493;-62
2023/09/01 01:48:36;;;;;;;14.00;6.78;;;;;;;;;;4984086;28;20422;-62
2023/09/01 01:51:05;;;;;;;13.52;6.88;;;;;;;;;;4985369;28;20512;-62
2023/09/01 01:53:32;;;;;;;13.02;6.88;;;;;;;;;;4989734;28;20449;-62
2023/09/01 01:56:01;;;;;;;11.98;7.00;;;;;;;;;;4988984;28;20412;-61
2023/09/01 01:58:28;;;;;;;11.68;6.57;;;;;;;;;;4992921;28;20425;-61
2023/09/01 02:00:55;;;;;;;13.88;6.50;;;;;;;;;;4986452;28;20458;-62
2023/09/01 02:03:22;;;;;;;13.90;7.07;;;;;;;;;;4993343;28;20781;-62
2023/09/01 02:05:49;;;;;;;12.85;6.60;;;;;;;;;;4984879;28;20523;-62
2023/09/01 02:08:16;;;;;;;12.10;7.07;;;;;;;;;;4993284;28;20430;-62
2023/09/01 02:10:43;;;;;;;13.63;7.07;;;;;;;;;;4982445;28;20416;-62
2023/09/01 02:13:11;;;;;;;12.15;7.25;;;;;;;;;;4993523;28;20416;-62
2023/09/01 02:15:38;;;;;;;13.07;6.72;;;;;;;;;;4981226;28;20420;-62
2023/09/01 02:18:09;;;;;;;16.70;6.63;;;;;;;;;;4987929;28;20421;-62
2023/09/01 02:20:37;;;;;;;11.20;6.80;;;;;;;;;;4987049;28;20454;-62
2023/09/01 02:23:04;;;;;;;16.63;7.07;;;;;;;;;;4987195;28;20417;-62
2023/09/01 02:25:36;;;;;;;12.30;6.90;;;;;;;;;;4987860;28;20441;-62
2023/09/01 02:28:04;;;;;;;12.02;6.85;;;;;;;;;;4991783;28;20887;-62
2023/09/01 02:30:33;;;;;;;13.13;7.10;;;;;;;;;;4987087;28;20494;-62
2023/09/01 02:33:00;;;;;;;11.60;6.63;;;;;;;;;;4990795;28;20420;-62
2023/09/01 02:35:27;;;;;;;12.82;6.72;;;;;;;;;;4986907;28;20421;-61
2023/09/01 02:37:54;;;;;;;12.20;6.53;;;;;;;;;;4989167;28;20420;-62
2023/09/01 02:40:24;;;;;;;12.10;7.13;;;;;;;;;;4986267;28;20417;-61
2023/09/01 02:42:51;;;;;;;12.90;7.25;;;;;;;;;;4988153;28;20440;-62
2023/09/01 02:45:18;;;;;;;10.13;6.90;;;;;;;;;;4992464;28;20504;-62
2023/09/01 02:47:47;;;;;;;12.43;7.03;;;;;;;;;;4984393;28;20419;-62
2023/09/01 02:50:14;;;;;;;14.07;6.95;;;;;;;;;;4988414;28;20422;-61
2023/09/01 02:52:41;;;;;;;13.18;6.85;;;;;;;;;;4986186;28;20883;-62
2023/09/01 02:55:08;;;;;;;11.38;6.68;;;;;;;;;;4991052;28;20440;-62
2023/09/01 02:57:35;;;;;;;15.20;7.85;;;;;;;;;;4986121;28;20420;-62
2023/09/01 03:00:14;;;;;;;14.75;7.78;;;;;;;;;;4990942;28;20478;-61
2023/09/01 03:02:41;;;;;;;15.43;7.40;;;;;;;;;;4984723;28;20431;-62
2023/09/01 03:05:10;;;;;;;10.52;6.57;;;;;;;;;;4987915;28;20419;-62
2023/09/01 03:07:37;;;;;;;14.73;6.87;;;;;;;;;;4987972;28;20523;-62
2023/09/01 03:10:07;;;;;;;13.95;6.70;;;;;;;;;;4993526;28;20417;-62
2023/09/01 03:12:34;;;;;;;11.38;6.68;;;;;;;;;;4987604;28;20779;-62
2023/09/01 03:15:02;;;;;;;11.35;6.88;;;;;;;;;;4999125;28;20753;-62
2023/09/01 03:17:29;;;;;;;13.33;7.27;;;;;;;;;;4986687;28;20781;-62
2023/09/01 03:19:56;;;;;;;10.60;6.43;;;;;;;;;;4992462;28;20424;-62
2023/09/01 03:22:24;;;;;;;10.55;7.03;;;;;;;;;;4988199;28;20438;-62
2023/09/01 03:24:52;;;;;;;11.03;6.60;;;;;;;;;;4998198;28;20425;-62
2023/09/01 03:27:19;;;;;;;12.30;6.70;;;;;;;;;;4986525;28;20410;-62
2023/09/01 03:29:46;;;;;;;12.93;6.72;;;;;;;;;;4994133;28;20475;-62
2023/09/01 03:32:13;;;;;;;14.82;7.60;;;;;;;;;;4987794;28;20415;-62
2023/09/01 03:34:40;;;;;;;10.48;7.03;;;;;;;;;;4992032;28;20414;-62
2023/09/01 03:37:12;;;;;;;12.25;6.47;;;;;;;;;;4990899;28;20415;-62
2023/09/01 03:39:40;;;;;;;11.45;6.90;;;;;;;;;;4991989;28;20414;-62
2023/09/01 03:42:07;;;;;;;9.93;6.43;;;;;;;;;;4988500;28;20425;-62
2023/09/01 03:44:34;;;;;;;13.55;7.00;;;;;;;;;;4993456;28;20785;-62
2023/09/01 03:47:02;;;;;;;11.95;6.03;;;;;;;;;;4990435;28;20422;-62
2023/09/01 03:49:29;;;;;;;9.18;6.38;;;;;;;;;;4989091;28;20418;-62
2023/09/01 03:51:56;;;;;;;9.38;5.40;;;;;;;;;;4987886;28;20448;-61
2023/09/01 03:54:23;;;;;;;8.23;5.70;;;;;;;;;;4994416;28;20893;-60
2023/09/01 03:56:51;;;;;;;10.85;5.65;;;;;;;;;;4985615;28;20419;-62
2023/09/01 03:59:18;;;;;;;11.30;5.60;;;;;;;;;;4994527;28;20464;-62
2023/09/01 04:01:45;;;;;;;9.93;5.70;;;;;;;;;;4995049;28;20482;-62
2023/09/01 04:04:12;;;;;;;8.88;5.25;;;;;;;;;;4994497;28;20884;-62
2023/09/01 04:06:39;;;;;;;9.07;5.53;;;;;;;;;;4989626;28;20432;-62
2023/09/01 04:09:08;;;;;;;8.25;5.35;;;;;;;;;;4994523;28;20452;-62
2023/09/01 04:11:35;;;;;;;10.77;5.93;;;;;;;;;;4989268;28;20467;-62
2023/09/01 04:14:04;;;;;;;8.10;5.40;;;;;;;;;;4993043;28;20432;-62
2023/09/01 04:16:31;;;;;;;8.65;5.80;;;;;;;;;;4986362;28;20463;-62
2023/09/01 04:18:58;;;;;;;10.98;5.50;;;;;;;;;;4986662;28;20423;-62
2023/09/01 04:21:25;;;;;;;10.07;5.95;;;;;;;;;;4988683;28;20445;-62
2023/09/01 04:23:52;;;;;;;10.77;5.97;;;;;;;;;;4990885;28;20416;-62
2023/09/01 04:26:19;;;;;;;11.18;6.88;;;;;;;;;;4988179;28;20432;-62
2023/09/01 04:28:46;;;;;;;11.05;6.43;;;;;;;;;;4989368;28;20925;-62
2023/09/01 04:31:17;;;;;;;10.07;6.63;;;;;;;;;;4990677;28;20416;-61
2023/09/01 04:33:44;;;;;;;8.68;6.45;;;;;;;;;;4988268;28;20902;-62
2023/09/01 04:36:11;;;;;;;10.25;6.22;;;;;;;;;;4990166;28;20448;-62
2023/09/01 04:38:38;;;;;;;12.02;6.47;;;;;;;;;;4987982;28;20428;-62
2023/09/01 04:41:05;;;;;;;10.00;6.20;;;;;;;;;;4992626;28;20413;-62
2023/09/01 04:43:32;;;;;;;12.60;7.03;;;;;;;;;;4987899;28;20472;-62
2023/09/01 04:45:59;;;;;;;11.73;6.95;;;;;;;;;;4996766;28;20439;-62
2023/09/01 04:48:28;;;;;;;11.85;7.35;;;;;;;;;;4982103;28;20893;-62
2023/09/01 04:50:55;;;;;;;11.77;7.37;;;;;;;;;;4989442;28;20502;-62
2023/09/01 04:53:22;;;;;;;11.15;6.97;;;;;;;;;;4987886;28;20928;-62
2023/09/01 04:55:49;;;;;;;9.32;6.35;;;;;;;;;;4994008;28;20418;-62
2023/09/01 04:58:16;;;;;;;11.73;7.17;;;;;;;;;;4988584;28;20442;-63
2023/09/01 05:00:44;;;;;;;11.95;7.30;;;;;;;;;;4991839;28;20415;-62
2023/09/01 05:03:11;;;;;;;11.60;7.30;;;;;;;;;;4989070;28;20778;-61
2023/09/01 05:05:39;;;;;;;12.48;7.35;;;;;;;;;;4991603;28;20421;-62
2023/09/01 05:08:06;;;;;;;9.80;7.00;;;;;;;;;;4988114;28;20422;-62
2023/09/01 05:10:33;;;;;;;11.52;6.97;;;;;;;;;;4991193;28;20415;-62
2023/09/01 05:13:00;;;;;;;11.93;7.10;;;;;;;;;;4986018;28;20412;-62
2023/09/01 05:15:28;;;;;;;9.88;6.93;;;;;;;;;;4986248;28;20422;-62
2023/09/01 05:17:55;;;;;;;10.90;7.18;;;;;;;;;;4982779;28;20423;-62
2023/09/01 05:20:22;;;;;;;10.82;7.30;;;;;;;;;;4990913;28;20418;-62
2023/09/01 05:22:50;;;;;;;10.20;7.20;;;;;;;;;;4984357;28;20451;-62
2023/09/01 05:25:17;;;;;;;10.77;6.93;;;;;;;;;;4995418;28;20460;-62
2023/09/01 05:27:45;;;;;;;9.55;6.80;;;;;;;;;;4983197;28;20416;-62
2023/09/01 05:30:12;;;;;;;11.50;7.07;;;;;;;;;;4988816;28;20461;-62
2023/09/01 05:32:40;;;;;;;11.13;6.60;;;;;;;;;;4982855;28;20591;-62
2023/09/01 05:35:07;;;;;;;8.82;6.28;;;;;;;;;;4994646;28;20420;-62
2023/09/01 05:37:34;;;;;;;9.35;6.15;;;;;;;;;;4982724;28;20428;-62
2023/09/01 05:40:03;;;;;;;10.90;6.97;;;;;;;;;;4993803;28;20432;-62
2023/09/01 05:42:30;;;;;;;11.95;6.50;;;;;;;;;;4988608;28;20491;-62
2023/09/01 05:44:57;;;;;;;9.98;6.30;;;;;;;;;;4992669;28;20431;-62
2023/09/01 05:47:24;;;;;;;10.27;5.80;;;;;;;;;;4984603;28;20422;-62
2023/09/01 05:49:51;;;;;;;11.85;5.90;;;;;;;;;;4986450;28;20451;-62
2023/09/01 05:52:18;;;;;;;9.88;5.82;;;;;;;;;;4987751;28;20439;-62
2023/09/01 05:54:46;;;;;;;6.75;5.55;;;;;;;;;;4989677;28;20431;-62
2023/09/01 05:57:14;;;;;;;10.10;5.78;;;;;;;;;;4988158;28;20417;-62
2023/09/01 05:59:41;;;;;;;10.02;5.60;;;;;;;;;;4989473;28;21100;-62
2023/09/01 06:02:08;;;;;;;10.00;5.70;;;;;;;;;;4987041;28;20448;-62
2023/09/01 06:04:37;;;;;;;8.45;5.80;;;;;;;;;;4988721;28;21252;-62
2023/09/01 06:07:05;;;;;;;9.85;5.97;;;;;;;;;;4985741;28;20418;-62
2023/09/01 06:09:34;;;;;;;8.38;5.90;;;;;;;;;;4987178;28;20469;-62
2023/09/01 06:12:01;;;;;;;9.32;5.85;;;;;;;;;;4991060;28;20426;-62
2023/09/01 06:14:30;;;;;;;7.53;5.35;;;;;;;;;;4988996;28;20927;-62
2023/09/01 06:16:57;;;;;;;9.20;5.10;;;;;;;;;;4984660;28;20430;-62
2023/09/01 06:19:24;;;;;;;7.83;4.87;;;;;;;;;;4987885;28;20426;-62
2023/09/01 06:21:51;;;;;;;9.85;5.63;;;;;;;;;;4987264;28;20419;-62
2023/09/01 06:24:18;;;;;;;9.90;5.38;;;;;;;;;;4989891;28;20422;-62
2023/09/01 06:26:45;;;;;;;8.13;6.00;;;;;;;;;;4985699;28;20425;-62
2023/09/01 06:29:12;;;;;;;6.25;5.30;;;;;;;;;;4985735;28;20418;-62
2023/09/01 06:31:40;;;;;;;6.78;5.18;;;;;;;;;;4985424;28;20453;-62
2023/09/01 06:34:08;;;;;;;8.38;5.10;;;;;;;;;;4988905;28;20594;-62
2023/09/01 06:36:35;;;;;;;9.38;5.20;;;;;;;;;;4992454;28;20420;-61
2023/09/01 06:39:02;;;;;;;10.15;5.20;;;;;;;;;;4987324;28;20420;-62
2023/09/01 06:41:29;;;;;;;9.38;4.65;;;;;;;;;;4994794;28;20418;-61
2023/09/01 06:43:56;;;;;;;9.07;5.03;;;;;;;;;;4990009;28;20432;-62
2023/09/01 06:46:23;;;;;;;9.38;5.13;;;;;;;;;;4992733;28;20418;-62
2023/09/01 06:48:51;;;;;;;7.78;4.78;;;;;;;;;;4986124;28;20426;-62
2023/09/01 06:51:18;;;;;;;6.07;4.47;;;;;;;;;;4994811;28;20432;-62
2023/09/01 06:53:45;;;;;;;6.53;4.05;;;;;;;;;;4988258;28;20431;-60
2023/09/01 06:56:12;;;;;;;9.80;4.60;;;;;;;;;;4994335;28;20416;-61
2023/09/01 06:58:39;;;;;;;7.10;4.40;;;;;;;;;;4988750;28;20423;-61
2023/09/01 07:01:10;;;;;;;7.63;4.78;;;;;;;;;;4998817;28;20420;-61
2023/09/01 07:03:37;;;;;;;8.07;4.60;;;;;;;;;;4988102;28;20433;-61
2023/09/01 07:06:06;;;;;;;5.65;4.05;;;;;;;;;;4998633;28;20419;-61
2023/09/01 07:08:33;;;;;;;6.78;4.38;;;;;;;;;;4987755;28;20419;-62
2023/09/01 07:11:03;;;;;;;7.82;4.50;;;;;;;;;;4996872;28;20420;-61
2023/09/01 07:13:30;;;;;;;7.22;3.88;;;;;;;;;;4986741;28;20908;-61
2023/09/01 07:15:57;;;;;;;7.85;4.20;;;;;;;;;;4994733;28;20510;-62
2023/09/01 07:18:25;;;;;;;6.57;3.85;;;;;;;;;;4986350;28;20421;-61
2023/09/01 07:20:52;;;;;;;4.97;3.50;;;;;;;;;;4990841;28;20843;-62
2023/09/01 07:23:21;;;;;;;5.28;3.83;;;;;;;;;;4992145;28;20435;-61
2023/09/01 07:25:48;;;;;;;7.17;3.90;;;;;;;;;;4994157;28;20475;-61
2023/09/01 07:28:15;;;;;;;5.95;3.80;;;;;;;;;;4992283;28;20412;-61
2023/09/01 07:30:42;;;;;;;6.28;3.40;;;;;;;;;;4994088;28;20414;-61
2023/09/01 07:33:09;;;;;;;6.10;3.55;;;;;;;;;;4990733;28;20423;-61
2023/09/01 07:35:36;;;;;;;4.97;3.22;;;;;;;;;;4994717;28;20425;-61
2023/09/01 07:38:03;;;;;;;5.65;3.53;;;;;;;;;;4988749;28;20424;-61
2023/09/01 07:40:33;;;;;;;5.63;3.47;;;;;;;;;;4994875;28;20414;-62
2023/09/01 07:43:00;;;;;;;4.50;3.40;;;;;;;;;;4986948;28;20464;-62
2023/09/01 07:45:27;;;;;;;6.80;3.45;;;;;;;;;;4995046;28;20790;-62
2023/09/01 07:47:54;;;;;;;5.75;3.08;;;;;;;;;;4983682;28;20925;-60
2023/09/01 07:50:23;;;;;;;4.90;3.00;;;;;;;;;;4992768;28;20457;-61
2023/09/01 07:52:51;;;;;;;3.72;3.20;;;;;;;;;;4989541;28;20903;-61
2023/09/01 07:55:18;;;;;;;4.82;3.00;;;;;;;;;;4989639;28;20454;-61
2023/09/01 07:57:46;;;;;;;4.07;2.70;;;;;;;;;;4987961;28;20415;-60
2023/09/01 08:00:14;;;;;;;3.20;2.50;;;;;;;;;;4989346;28;20425;-63
2023/09/01 08:02:41;;;;;;;3.43;2.50;;;;;;;;;;4992203;28;20443;-62
2023/09/01 08:05:08;;;;;;;3.30;2.65;;;;;;;;;;4992917;28;20446;-62
2023/09/01 08:07:35;;;;;;;4.22;2.58;;;;;;;;;;4999939;28;20439;-63
2023/09/01 08:10:03;;;;;;;3.30;2.90;;;;;;;;;;4993319;28;20447;-63
2023/09/01 08:12:30;;;;;;;4.90;3.00;;;;;;;;;;4988887;28;20420;-63
2023/09/01 08:14:58;;;;;;;4.25;2.70;;;;;;;;;;5004957;28;20429;-62
2023/09/01 08:17:25;;;;;;;6.28;2.90;;;;;;;;;;4990879;28;20437;-63
2023/09/01 08:19:52;;;;;;;5.03;3.00;;;;;;;;;;4986786;28;20431;-62
2023/09/01 08:22:19;;;;;;;3.40;2.67;;;;;;;;;;4993354;28;20409;-61
2023/09/01 08:24:46;;;;;;;5.05;2.92;;;;;;;;;;4988390;28;20424;-65
2023/09/01 08:27:13;;;;;;;4.30;2.80;;;;;;;;;;4993229;28;20420;-66
2023/09/01 08:29:41;;;;;;;3.58;2.30;;;;;;;;;;4991144;28;20418;-63
2023/09/01 08:32:11;;;;;;;3.83;2.53;;;;;;;;;;4999611;28;20495;-63
2023/09/01 08:34:38;;;;;;;5.47;2.60;;;;;;;;;;4987782;28;20453;-63
2023/09/01 08:37:05;;;;;;;6.13;2.70;;;;;;;;;;4991401;28;20419;-63
2023/09/01 08:39:33;;;;;;;4.10;2.80;;;;;;;;;;4986926;28;20567;-63
2023/09/01 08:42:00;;;;;;;3.63;2.70;;;;;;;;;;4995676;28;20422;-63
2023/09/01 08:44:29;;;;;;;6.00;2.65;;;;;;;;;;4988222;28;20442;-64
2023/09/01 08:46:57;;;;;;;3.63;2.33;;;;;;;;;;4990626;28;20418;-62
2023/09/01 08:49:26;;;;;;;3.35;2.20;;;;;;;;;;4988707;28;20824;-62
2023/09/01 08:51:55;;;;;;;2.57;2.30;;;;;;;;;;4986484;28;20422;-63
2023/09/01 08:54:23;;;;;;;3.75;2.20;;;;;;;;;;4991362;28;20428;-63
2023/09/01 08:56:50;;;;;;;4.27;2.13;;;;;;;;;;4992209;28;20421;-63
2023/09/01 08:59:17;;;;;;;2.65;2.10;;;;;;;;;;4986682;28;20422;-63
2023/09/01 09:01:44;;;;;;;2.58;1.85;;;;;;;;;;4993583;28;20414;-63
2023/09/01 09:04:11;;;;;;;2.25;1.75;;;;;;;;;;4984654;28;20450;-63
2023/09/01 09:06:40;;;;;;;3.75;1.90;;;;;;;;;;4991236;28;20808;-63
2023/09/01 09:09:11;;;;;;;2.55;1.92;;;;;;;;;;4988351;28;20424;-63
2023/09/01 09:11:39;;;;;;;3.33;2.00;;;;;;;;;;4993841;28;20415;-63
2023/09/01 09:14:07;;;;;;;3.53;1.77;;;;;;;;;;4989708;28;20451;-63
2023/09/01 09:16:35;;;;;;;2.80;1.80;;;;;;;;;;4992485;28;20427;-63
2023/09/01 09:19:09;;;;;;;2.40;2.10;;;;;;;;;;4984321;28;20432;-63
2023/09/01 09:21:36;;;;;;;3.70;2.00;;;;;;;;;;4992467;28;20429;-63
2023/09/01 09:24:05;;;;;;;3.30;2.22;;;;;;;;;;4985400;28;20794;-63
2023/09/01 09:26:33;;;;;;;5.03;2.58;;;;;;;;;;4992785;28;20418;-63
2023/09/01 09:29:04;;;;;;;3.10;2.30;;;;;;;;;;4984033;28;20428;-63
2023/09/01 09:31:33;;;;;;;3.75;2.42;;;;;;;;;;4992048;28;20494;-63
2023/09/01 09:34:12;;;;;;;3.40;2.30;;;;;;;;;;4990099;28;20486;-63
2023/09/01 09:36:39;;;;;;;3.28;2.75;;;;;;;;;;4985761;28;20477;-63
2023/09/01 09:39:21;;;;;;;3.08;2.30;;;;;;;;;;4990941;28;20416;-63
2023/09/01 09:41:48;;;;;;;3.47;2.30;;;;;;;;;;4986757;28;20506;-63
2023/09/01 09:44:22;;;;;;;4.18;2.38;;;;;;;;;;4992296;28;20433;-64
2023/09/01 09:46:49;;;;;;;3.33;2.40;;;;;;;;;;4985883;28;20775;-63
2023/09/01 09:49:16;;;;;;;2.70;2.20;;;;;;;;;;4988179;28;20421;-63
2023/09/01 09:51:44;;;;;;;3.58;2.40;;;;;;;;;;4986044;28;20414;-63
2023/09/01 09:54:12;;;;;;;4.35;2.70;;;;;;;;;;4981704;28;20950;-63
2023/09/01 09:56:40;;;;;;;4.35;2.55;;;;;;;;;;4983893;28;20420;-63
2023/09/01 09:59:07;;;;;;;4.65;2.75;;;;;;;;;;4991982;28;20423;-63
2023/09/01 10:01:37;;;;;;;4.97;2.92;;;;;;;;;;4982047;28;20410;-63
2023/09/01 10:04:04;;;;;;;3.40;2.95;;;;;;;;;;4993933;28;20432;-63
2023/09/01 10:06:32;;;;;;;4.32;3.10;;;;;;;;;;4985472;28;20461;-63
2023/09/01 10:08:59;;;;;;;3.63;3.00;;;;;;;;;;4992546;28;20467;-63
2023/09/01 10:11:30;;;;;;;6.60;2.97;;;;;;;;;;4985908;28;20425;-63
2023/09/01 10:13:57;;;;;;;3.88;3.20;;;;;;;;;;4988599;28;20505;-65
2023/09/01 10:16:24;;;;;;;3.42;3.00;;;;;;;;;;4982452;28;20433;-63
2023/09/01 10:18:52;;;;;;;3.40;2.97;;;;;;;;;;4987388;28;20417;-62
2023/09/01 10:21:20;;;;;;;3.97;3.17;;;;;;;;;;4984268;28;20449;-62
2023/09/01 10:23:47;;;;;;;5.03;3.33;;;;;;;;;;4985261;28;20431;-61
2023/09/01 10:26:14;;;;;;;4.97;3.40;;;;;;;;;;4987830;28;20456;-63
2023/09/01 10:28:56;;;;;;;5.38;3.38;;;;;;;;;;4992019;28;20557;-62
2023/09/01 10:31:23;;;;;;;4.78;3.70;;;;;;;;;;4986418;28;20408;-62
2023/09/01 10:34:04;;;;;;;5.43;3.40;;;;;;;;;;4989424;28;20842;-61
2023/09/01 10:36:31;;;;;;;4.70;3.53;;;;;;;;;;4987029;28;20899;-61
2023/09/01 10:39:04;;;;;;;4.75;3.50;;;;;;;;;;4988997;28;20448;-61
2023/09/01 10:41:47;;;;;;;4.93;3.42;;;;;;;;;;4986794;28;20413;-63
2023/09/01 10:44:15;;;;;;;3.78;3.10;;;;;;;;;;4988995;28;20508;-62
2023/09/01 10:46:42;;;;;;;5.25;2.75;;;;;;;;;;4982888;28;21091;-62
2023/09/01 10:49:12;;;;;;;3.35;2.50;;;;;;;;;;4983637;28;20428;-62
2023/09/01 10:51:39;;;;;;;3.03;2.50;;;;;;;;;;4979945;28;20678;-63
2023/09/01 10:54:21;;;;;;;4.10;2.30;;;;;;;;;;4981983;28;20421;-65
2023/09/01 10:56:56;;;;;;;5.20;2.40;;;;;;;;;;4990075;28;20897;-65
2023/09/01 10:59:30;;;;;;;3.22;1.90;;;;;;;;;;4982625;28;20472;-63
2023/09/01 11:01:57;;;;;;;2.90;1.70;;;;;;;;;;4985781;28;20972;-63
2023/09/01 11:04:30;;;;;;;2.42;1.63;;;;;;;;;;4988002;28;20434;-64
2023/09/01 11:07:02;;;;;;;2.92;1.70;;;;;;;;;;4985777;28;20414;-63
2023/09/01 11:09:44;;;;;;;4.20;1.80;;;;;;;;;;4982456;28;20422;-63
2023/09/01 11:12:12;;;;;;;3.03;1.83;;;;;;;;;;4989458;28;20448;-62
2023/09/01 11:14:54;;;;;;;1.63;1.40;;;;;;;;;;4983635;28;20418;-63
2023/09/01 11:17:32;;;;;;;2.13;1.50;;;;;;;;;;4991452;28;20475;-63
2023/09/01 11:19:59;;;;;;;2.15;1.52;;;;;;;;;;4995676;28;20449;-63
2023/09/01 11:22:26;;;;;;;3.47;1.67;;;;;;;;;;5000301;28;20421;-64
2023/09/01 11:24:53;;;;;;;1.60;1.50;;;;;;;;;;4999410;28;20917;-63
2023/09/01 11:27:22;;;;;;;2.10;1.33;;;;;;;;;;4989486;28;20427;-62
2023/09/01 11:29:54;;;;;;;2.83;1.40;;;;;;;;;;5000650;28;20425;-63
2023/09/01 11:32:26;;;;;;;1.98;1.20;;;;;;;;;;4989186;28;20428;-62
2023/09/01 11:34:53;;;;;;;1.95;1.55;;;;;;;;;;4997923;28;20408;-61
2023/09/01 11:37:34;;;;;;;1.23;1.10;;;;;;;;;;4995619;28;20416;-61
2023/09/01 11:40:02;;;;;;;4.55;1.30;;;;;;;;;;4997947;28;20425;-61
2023/09/01 11:42:29;;;;;;;2.17;1.30;;;;;;;;;;5005538;28;20443;-61
2023/09/01 11:44:57;;;;;;;1.45;1.05;;;;;;;;;;4994937;28;20434;-60
2023/09/01 11:47:27;;;;;;;1.52;1.13;;;;;;;;;;4999621;28;20490;-61
2023/09/01 11:49:54;;;;;;;1.27;0.90;;;;;;;;;;4995888;28;20500;-61
2023/09/01 11:52:21;;;;;;;1.20;0.93;;;;;;;;;;5000120;28;20435;-61
2023/09/01 11:54:48;;;;;;;2.15;1.15;;;;;;;;;;5004557;28;20418;-61
2023/09/01 11:57:15;;;;;;;1.05;0.95;;;;;;;;;;4990972;28;20894;-61
2023/09/01 11:59:45;;;;;;;1.50;1.10;;;;;;;;;;5012145;28;20918;-61
2023/09/01 12:02:15;;;;;;;2.20;1.30;;;;;;;;;;4991563;28;20427;-61
2023/09/01 12:04:51;;;;;;;1.97;1.00;;;;;;;;;;5003590;28;20430;-61
2023/09/01 12:07:25;;;;;;;1.60;1.30;;;;;;;;;;5003361;28;20417;-61
2023/09/01 12:09:53;;;;;;;2.58;1.52;;;;;;;;;;4994363;28;20477;-61
2023/09/01 12:12:20;;;;;;;1.83;1.45;;;;;;;;;;5000437;28;20961;-61
2023/09/01 12:14:47;;;;;;;1.73;1.45;;;;;;;;;;4990142;28;20410;-61
2023/09/01 12:17:22;;;;;;;1.63;1.30;;;;;;;;;;4997210;28;20425;-61
2023/09/01 12:19:50;;;;;;;1.42;1.30;;;;;;;;;;4987805;28;20419;-62
2023/09/01 12:22:18;;;;;;;2.00;1.33;;;;;;;;;;4987533;28;20428;-61
2023/09/01 12:24:51;;;;;;;1.58;1.48;;;;;;;;;;5002470;28;20438;-61
2023/09/01 12:27:18;;;;;;;1.47;1.27;;;;;;;;;;4986630;28;20433;-61
2023/09/01 12:29:45;;;;;;;2.08;1.33;;;;;;;;;;4987077;28;20418;-61
2023/09/01 12:32:13;;;;;;;1.50;1.15;;;;;;;;;;4984305;28;20435;-62
2023/09/01 12:34:41;;;;;;;1.30;1.10;;;;;;;;;;4990842;28;20417;-61
2023/09/01 12:37:08;;;;;;;1.70;1.17;;;;;;;;;;4985891;28;20466;-61
2023/09/01 12:39:36;;;;;;;3.15;1.23;;;;;;;;;;4984546;28;20422;-61
2023/09/01 12:42:03;;;;;;;1.48;1.20;;;;;;;;;;4982520;28;20428;-62
2023/09/01 12:44:30;;;;;;;2.70;1.40;;;;;;;;;;4984410;28;20434;-62
2023/09/01 12:46:58;;;;;;;2.10;1.52;;;;;;;;;;4987222;28;20415;-61
2023/09/01 12:49:25;;;;;;;1.60;1.50;;;;;;;;;;4991859;28;20927;-62
2023/09/01 12:51:53;;;;;;;4.70;1.30;;;;;;;;;;5001375;28;20414;-61
2023/09/01 12:54:20;;;;;;;3.47;1.50;;;;;;;;;;4992789;28;20412;-61
2023/09/01 12:56:47;;;;;;;2.75;1.40;;;;;;;;;;5011080;28;20413;-61
2023/09/01 12:59:14;;;;;;;1.83;1.50;;;;;;;;;;4990033;28;20420;-62
2023/09/01 13:01:41;;;;;;;2.30;1.48;;;;;;;;;;5001408;28;20424;-61
2023/09/01 13:04:08;;;;;;;1.48;1.38;;;;;;;;;;4995621;28;20883;-61
2023/09/01 13:06:35;;;;;;;2.20;1.55;;;;;;;;;;4996489;28;20412;-61
2023/09/01 13:09:04;;;;;;;1.90;1.50;;;;;;;;;;4996904;28;20430;-64
2023/09/01 13:11:31;;;;;;;2.13;1.63;;;;;;;;;;4986544;28;20421;-61
2023/09/01 13:13:58;;;;;;;1.88;1.40;;;;;;;;;;4991407;28;20430;-63
2023/09/01 13:16:29;;;;;;;2.28;1.63;;;;;;;;;;4986905;28;20417;-63
2023/09/01 13:18:56;;;;;;;2.00;1.80;;;;;;;;;;4990495;28;20425;-63
2023/09/01 13:21:23;;;;;;;4.40;1.98;;;;;;;;;;4991974;28;20427;-63
2023/09/01 13:23:52;;;;;;;2.45;1.85;;;;;;;;;;4992925;28;20426;-63
2023/09/01 13:26:20;;;;;;;1.80;1.48;;;;;;;;;;4992209;28;20929;-63
2023/09/01 13:28:48;;;;;;;2.50;1.70;;;;;;;;;;4989830;28;20415;-62
2023/09/01 13:31:16;;;;;;;2.35;1.80;;;;;;;;;;4991235;28;20906;-62
2023/09/01 13:33:43;;;;;;;2.15;1.80;;;;;;;;;;4986743;28;20414;-62
2023/09/01 13:36:10;;;;;;;2.60;2.25;;;;;;;;;;4989031;28;20422;-64
2023/09/01 13:38:38;;;;;;;2.65;2.40;;;;;;;;;;4990544;28;20418;-64
2023/09/01 13:41:07;;;;;;;2.80;2.38;;;;;;;;;;4993183;28;20456;-64
2023/09/01 13:43:36;;;;;;;4.22;2.45;;;;;;;;;;4985501;28;20422;-62
2023/09/01 13:46:22;;;;;;;2.30;2.10;;;;;;;;;;4992104;28;20434;-62
2023/09/01 13:48:52;;;;;;;2.20;2.00;;;;;;;;;;4985413;28;20414;-62
2023/09/01 13:51:19;;;;;;;2.75;2.10;;;;;;;;;;5003047;28;20429;-63
2023/09/01 13:53:46;;;;;;;3.67;2.20;;;;;;;;;;4988028;28;20448;-61
2023/09/01 13:56:13;;;;;;;2.42;1.90;;;;;;;;;;5007066;28;20748;-62
2023/09/01 13:58:42;;;;;;;3.10;1.83;;;;;;;;;;4996472;28;20424;-64
2023/09/01 14:01:09;;;;;;;2.25;1.95;;;;;;;;;;5000885;28;20419;-64
2023/09/01 14:03:36;;;;;;;1.95;1.70;;;;;;;;;;5007055;28;20413;-63
2023/09/01 14:06:03;;;;;;;3.03;1.85;;;;;;;;;;4988322;28;20802;-63
2023/09/01 14:08:30;;;;;;;2.33;1.80;;;;;;;;;;4998037;28;20416;-62
2023/09/01 14:10:57;;;;;;;5.20;1.63;;;;;;;;;;4991650;28;20438;-61
2023/09/01 14:13:25;;;;;;;1.45;1.35;;;;;;;;;;4998157;28;20424;-62
2023/09/01 14:15:54;;;;;;;2.20;1.70;;;;;;;;;;5000043;28;20414;-63
2023/09/01 14:18:21;;;;;;;3.00;1.70;;;;;;;;;;4986696;28;20422;-63
2023/09/01 14:20:52;;;;;;;1.85;1.63;;;;;;;;;;5004943;28;20417;-64
2023/09/01 14:23:19;;;;;;;2.45;1.65;;;;;;;;;;4992852;28;20416;-63
2023/09/01 14:25:46;;;;;;;2.80;1.83;;;;;;;;;;4985376;28;20435;-64
2023/09/01 14:28:13;;;;;;;2.10;1.90;;;;;;;;;;4989559;28;20427;-64
2023/09/01 14:30:40;;;;;;;3.75;2.08;;;;;;;;;;4985555;28;20537;-65
2023/09/01 14:33:09;;;;;;;3.15;1.80;;;;;;;;;;4995465;28;20418;-63
2023/09/01 14:35:36;;;;;;;2.20;1.30;;;;;;;;;;4985819;28;20414;-62
2023/09/01 14:38:03;;;;;;;2.70;1.80;;;;;;;;;;4995676;28;20505;-63
2023/09/01 14:40:30;;;;;;;3.13;2.08;;;;;;;;;;4987756;28;20419;-63
2023/09/01 14:42:57;;;;;;;2.20;1.92;;;;;;;;;;4986165;28;20425;-63
2023/09/01 14:45:25;;;;;;;3.08;1.90;;;;;;;;;;4985416;28;20438;-63